createdAt,value
2023-04-16T00:02:07.892Z,4.79
2023-04-16T00:04:34.719Z,4.67
2023-04-16T00:07:01.383Z,4.68
2023-04-16T00:09:28.067Z,4.62
2023-04-16T00:11:54.749Z,4.65
2023-04-16T00:14:21.379Z,4.62
2023-04-16T00:16:48.048Z,4.57
2023-04-16T00:19:14.749Z,4.39
2023-04-16T00:21:41.378Z,4.37
2023-04-16T00:24:08.137Z,4.25
2023-04-16T00:26:34.776Z,4.23
2023-04-16T00:29:01.643Z,4.23
2023-04-16T00:31:29.677Z,4.29
2023-04-16T00:33:57.060Z,4.22
2023-04-16T00:36:24.972Z,4.23
2023-04-16T00:38:51.821Z,4.24
2023-04-16T00:41:18.531Z,4.26
2023-04-16T00:43:45.651Z,4.20
2023-04-16T00:46:12.879Z,4.13
2023-04-16T00:48:41.633Z,3.99
2023-04-16T00:51:09.172Z,3.94
2023-04-16T00:53:36.555Z,3.93
2023-04-16T00:56:05.121Z,3.93
2023-04-16T00:58:32.824Z,3.95
2023-04-16T01:00:59.857Z,3.92
2023-04-16T01:03:39.666Z,3.90
2023-04-16T01:06:07.647Z,3.87
2023-04-16T01:08:34.447Z,3.79
2023-04-16T01:11:01.448Z,3.71
2023-04-16T01:13:28.128Z,3.66
2023-04-16T01:15:55.038Z,3.60
2023-04-16T01:18:22.828Z,3.57
2023-04-16T01:20:50.427Z,3.54
2023-04-16T01:23:20.699Z,3.59
2023-04-16T01:25:47.692Z,3.59
2023-04-16T01:28:14.618Z,3.59
2023-04-16T01:30:41.649Z,3.63
2023-04-16T01:33:11.255Z,3.57
2023-04-16T01:35:38.745Z,3.56
2023-04-16T01:38:06.968Z,3.62
2023-04-16T01:40:34.432Z,3.63
2023-04-16T01:43:01.456Z,3.54
2023-04-16T01:45:28.097Z,3.45
2023-04-16T01:47:54.835Z,3.43
2023-04-16T01:50:22.316Z,3.48
2023-04-16T01:52:48.944Z,3.44
2023-04-16T01:55:15.876Z,3.44
2023-04-16T01:57:42.558Z,3.44
2023-04-16T02:00:09.520Z,3.46
2023-04-16T02:02:36.787Z,3.46
2023-04-16T02:05:03.706Z,3.45
2023-04-16T02:07:31.742Z,3.48
2023-04-16T02:09:58.369Z,3.47
2023-04-16T02:12:25.461Z,3.40
2023-04-16T02:14:52.077Z,3.44
2023-04-16T02:17:18.792Z,3.47
2023-04-16T02:19:45.440Z,3.45
2023-04-16T02:22:12.084Z,3.41
2023-04-16T02:24:38.658Z,3.34
2023-04-16T02:27:05.348Z,3.43
2023-04-16T02:29:32.039Z,3.45
2023-04-16T02:31:59.780Z,3.51
2023-04-16T02:34:26.494Z,3.50
2023-04-16T02:36:54.303Z,3.44
2023-04-16T02:39:21.053Z,3.39
2023-04-16T02:41:47.727Z,3.34
2023-04-16T02:44:14.337Z,3.28
2023-04-16T02:46:41.155Z,3.27
2023-04-16T02:49:07.963Z,3.31
2023-04-16T02:51:34.741Z,3.28
2023-04-16T02:54:03.100Z,3.24
2023-04-16T02:56:29.714Z,3.29
2023-04-16T02:58:56.510Z,3.35
2023-04-16T03:01:23.235Z,3.36
2023-04-16T03:03:49.979Z,3.33
2023-04-16T03:06:16.865Z,3.36
2023-04-16T03:08:43.445Z,3.33
2023-04-16T03:11:10.104Z,3.39
2023-04-16T03:13:36.712Z,3.40
2023-04-16T03:16:03.646Z,3.46
2023-04-16T03:18:30.501Z,3.46
2023-04-16T03:20:57.115Z,3.43
2023-04-16T03:23:23.623Z,3.43
2023-04-16T03:25:50.455Z,3.27
2023-04-16T03:28:16.957Z,3.18
2023-04-16T03:30:43.453Z,3.18
2023-04-16T03:33:09.951Z,3.03
2023-04-16T03:35:36.474Z,2.98
2023-04-16T03:38:02.925Z,2.95
2023-04-16T03:40:29.520Z,2.91
2023-04-16T03:42:56.252Z,2.95
2023-04-16T03:45:22.803Z,3.09
2023-04-16T03:47:52.744Z,3.27
2023-04-16T03:50:19.864Z,3.22
2023-04-16T03:52:47.050Z,3.24
2023-04-16T03:55:13.968Z,3.32
2023-04-16T03:57:41.128Z,3.30
2023-04-16T04:00:07.848Z,3.38
2023-04-16T04:02:34.456Z,3.42
2023-04-16T04:05:01.259Z,3.48
2023-04-16T04:07:27.763Z,3.55
2023-04-16T04:09:54.352Z,3.62
2023-04-16T04:12:20.890Z,3.71
2023-04-16T04:14:47.373Z,3.80
2023-04-16T04:17:13.871Z,3.82
2023-04-16T04:19:47.214Z,3.78
2023-04-16T04:22:21.226Z,3.80
2023-04-16T04:24:47.836Z,3.80
2023-04-16T04:27:14.482Z,3.87
2023-04-16T04:29:41.177Z,3.93
2023-04-16T04:32:07.950Z,4.07
2023-04-16T04:34:34.735Z,4.14
2023-04-16T04:37:01.562Z,4.26
2023-04-16T04:39:28.187Z,4.23
2023-04-16T04:41:54.858Z,4.26
2023-04-16T04:44:21.424Z,4.36
2023-04-16T04:46:48.083Z,4.35
2023-04-16T04:49:14.593Z,4.33
2023-04-16T04:51:41.363Z,4.34
2023-04-16T04:54:07.829Z,4.33
2023-04-16T04:56:34.455Z,4.34
2023-04-16T04:59:01.093Z,4.26
2023-04-16T05:01:27.703Z,4.23
2023-04-16T05:03:54.435Z,4.26
2023-04-16T05:06:21.384Z,4.22
2023-04-16T05:08:47.982Z,4.21
2023-04-16T05:11:14.649Z,4.33
2023-04-16T05:13:41.408Z,4.31
2023-04-16T05:16:08.028Z,4.39
2023-04-16T05:18:34.676Z,4.54
2023-04-16T05:21:01.270Z,4.58
2023-04-16T05:23:28.181Z,4.65
2023-04-16T05:25:54.838Z,4.85
2023-04-16T05:28:21.588Z,5.01
2023-04-16T05:30:48.175Z,5.21
2023-04-16T05:33:14.795Z,5.28
2023-04-16T05:35:41.340Z,5.35
2023-04-16T05:38:07.935Z,5.42
2023-04-16T05:40:34.624Z,5.64
2023-04-16T05:43:01.334Z,5.81
2023-04-16T05:45:28.279Z,5.92
2023-04-16T05:47:55.126Z,6.13
2023-04-16T05:50:21.780Z,6.30
2023-04-16T05:52:48.552Z,6.43
2023-04-16T05:55:15.164Z,6.53
2023-04-16T05:57:41.800Z,6.62
2023-04-16T06:00:08.866Z,6.76
2023-04-16T06:02:36.003Z,6.98
2023-04-16T06:05:02.799Z,7.19
2023-04-16T06:07:29.506Z,7.22
2023-04-16T06:09:56.080Z,7.41
2023-04-16T06:12:22.747Z,7.52
2023-04-16T06:14:49.504Z,7.69
2023-04-16T06:17:16.724Z,7.82
2023-04-16T06:19:43.374Z,7.84
2023-04-16T06:22:10.220Z,7.98
2023-04-16T06:24:36.901Z,8.21
2023-04-16T06:27:03.557Z,8.23
2023-04-16T06:29:40.572Z,8.23
2023-04-16T06:32:08.395Z,8.35
2023-04-16T06:34:35.341Z,8.41
2023-04-16T06:37:02.004Z,8.60
2023-04-16T06:39:28.649Z,8.66
2023-04-16T06:41:56.355Z,8.78
2023-04-16T06:44:23.314Z,8.75
2023-04-16T06:46:51.253Z,8.79
2023-04-16T06:49:17.891Z,8.95
2023-04-16T06:51:44.449Z,9.10
2023-04-16T06:54:11.144Z,9.11
2023-04-16T06:56:37.918Z,9.13
2023-04-16T06:59:04.930Z,9.31
2023-04-16T07:01:31.822Z,9.47
2023-04-16T07:03:59.168Z,9.72
2023-04-16T07:06:28.289Z,9.84
2023-04-16T07:08:57.464Z,9.87
2023-04-16T07:11:23.991Z,9.97
2023-04-16T07:13:58.135Z,10.08
2023-04-16T07:16:27.757Z,10.24
2023-04-16T07:18:58.578Z,10.33
2023-04-16T07:21:25.058Z,10.38
2023-04-16T07:23:51.638Z,10.55
2023-04-16T07:26:18.228Z,10.67
2023-04-16T07:28:44.761Z,10.74
2023-04-16T07:31:11.237Z,10.82
2023-04-16T07:33:37.856Z,10.99
2023-04-16T07:36:04.503Z,11.29
2023-04-16T07:38:30.978Z,11.45
2023-04-16T07:40:57.515Z,11.62
2023-04-16T07:43:24.017Z,11.59
2023-04-16T07:45:53.047Z,11.76
2023-04-16T07:48:19.550Z,11.90
2023-04-16T07:50:46.184Z,12.22
2023-04-16T07:53:12.679Z,12.32
2023-04-16T07:55:39.404Z,12.29
2023-04-16T07:58:07.344Z,12.53
2023-04-16T08:00:33.968Z,12.65
2023-04-16T08:03:00.595Z,12.91
2023-04-16T08:05:27.523Z,13.03
2023-04-16T08:07:54.013Z,13.24
2023-04-16T08:10:20.855Z,13.28
2023-04-16T08:12:47.362Z,13.54
2023-04-16T08:15:13.899Z,13.85
2023-04-16T08:17:40.363Z,-144.75
2023-04-16T08:20:07.224Z,-144.75
2023-04-16T08:22:33.863Z,-144.75
2023-04-16T08:25:00.713Z,-144.75
2023-04-16T08:27:27.167Z,13.85
2023-04-16T08:29:53.648Z,14.27
2023-04-16T08:32:20.801Z,14.24
2023-04-16T08:34:47.480Z,14.48
2023-04-16T08:37:15.623Z,14.60
2023-04-16T08:39:42.186Z,14.91
2023-04-16T08:42:13.005Z,15.02
2023-04-16T08:44:43.822Z,15.05
2023-04-16T08:47:12.166Z,14.96
2023-04-16T08:49:44.604Z,15.27
2023-04-16T08:52:14.932Z,15.39
2023-04-16T08:54:47.697Z,15.77
2023-04-16T08:57:24.133Z,15.97
2023-04-16T08:59:53.674Z,16.07
2023-04-16T09:02:20.919Z,16.14
2023-04-16T09:04:50.001Z,16.32
2023-04-16T09:07:18.222Z,16.86
2023-04-16T09:09:46.498Z,16.69
2023-04-16T09:12:13.222Z,16.91
2023-04-16T09:14:41.944Z,16.87
2023-04-16T09:17:11.218Z,16.67
2023-04-16T09:19:37.885Z,16.81
2023-04-16T09:22:04.564Z,16.90
2023-04-16T09:24:31.837Z,16.88
2023-04-16T09:26:59.980Z,16.71
2023-04-16T09:29:40.136Z,16.89
2023-04-16T09:32:11.689Z,16.90
2023-04-16T09:34:59.124Z,16.80
2023-04-16T09:37:30.031Z,16.93
2023-04-16T09:40:05.091Z,17.08
2023-04-16T09:42:35.089Z,17.29
2023-04-16T09:45:04.118Z,17.54
2023-04-16T09:47:44.510Z,17.54
2023-04-16T09:50:16.395Z,17.79
2023-04-16T09:52:45.908Z,17.95
2023-04-16T09:55:12.486Z,17.99
2023-04-16T09:57:39.161Z,17.93
2023-04-16T10:00:09.155Z,17.99
2023-04-16T10:02:39.324Z,17.92
2023-04-16T10:05:06.534Z,17.75
2023-04-16T10:07:37.663Z,17.50
2023-04-16T10:10:04.953Z,17.52
2023-04-16T10:12:33.057Z,17.36
2023-04-16T10:14:59.934Z,17.02
2023-04-16T10:17:29.928Z,17.22
2023-04-16T10:19:57.746Z,16.95
2023-04-16T10:22:24.352Z,16.85
2023-04-16T10:24:51.619Z,16.71
2023-04-16T10:27:19.428Z,16.51
2023-04-16T10:29:46.973Z,16.19
2023-04-16T10:32:14.411Z,16.22
2023-04-16T10:34:41.428Z,16.18
2023-04-16T10:37:07.980Z,16.00
2023-04-16T10:39:37.448Z,15.56
2023-04-16T10:42:12.495Z,15.50
2023-04-16T10:44:45.024Z,15.24
2023-04-16T10:47:14.036Z,15.19
2023-04-16T10:49:41.717Z,15.16
2023-04-16T10:52:19.029Z,15.07
2023-04-16T10:54:47.877Z,14.89
2023-04-16T10:57:19.755Z,14.79
2023-04-16T10:59:49.169Z,14.86
2023-04-16T11:02:20.472Z,14.84
2023-04-16T11:04:49.321Z,14.89
2023-04-16T11:07:20.594Z,15.00
2023-04-16T11:09:51.346Z,15.08
2023-04-16T11:12:22.413Z,15.19
2023-04-16T11:14:54.481Z,14.96
2023-04-16T11:17:22.069Z,14.90
2023-04-16T11:19:49.331Z,15.05
2023-04-16T11:22:17.796Z,15.13
2023-04-16T11:24:47.709Z,15.03
2023-04-16T11:27:16.139Z,15.31
2023-04-16T11:29:44.563Z,15.34
2023-04-16T11:32:21.647Z,15.35
2023-04-16T11:34:48.472Z,15.23
2023-04-16T11:37:15.122Z,14.99
2023-04-16T11:39:52.328Z,14.95
2023-04-16T11:42:21.381Z,14.95
2023-04-16T11:44:52.372Z,15.19
2023-04-16T11:47:19.286Z,15.40
2023-04-16T11:49:45.945Z,15.54
2023-04-16T11:52:12.699Z,15.66
2023-04-16T11:54:39.311Z,15.45
2023-04-16T11:57:06.260Z,15.14
2023-04-16T11:59:33.474Z,15.27
2023-04-16T12:02:00.268Z,15.30
2023-04-16T12:04:27.565Z,15.54
2023-04-16T12:07:13.517Z,15.91
2023-04-16T12:09:42.368Z,15.97
2023-04-16T12:12:30.841Z,16.12
2023-04-16T12:15:00.269Z,16.20
2023-04-16T12:17:26.955Z,16.38
2023-04-16T12:19:59.076Z,16.60
2023-04-16T12:22:37.217Z,16.32
2023-04-16T12:25:06.195Z,16.18
2023-04-16T12:27:53.344Z,16.32
2023-04-16T12:30:22.928Z,16.49
2023-04-16T12:33:12.913Z,16.67
2023-04-16T12:35:41.955Z,16.34
2023-04-16T12:38:08.508Z,16.39
2023-04-16T12:40:36.215Z,16.56
2023-04-16T12:43:02.964Z,16.72
2023-04-16T12:45:29.771Z,16.56
2023-04-16T12:47:57.565Z,16.53
2023-04-16T12:50:24.464Z,16.71
2023-04-16T12:52:51.248Z,16.85
2023-04-16T12:55:17.872Z,17.17
2023-04-16T12:57:44.806Z,17.46
2023-04-16T13:00:12.716Z,17.68
2023-04-16T13:02:40.167Z,17.91
2023-04-16T13:05:08.258Z,18.06
2023-04-16T13:07:35.315Z,17.86
2023-04-16T13:10:02.224Z,17.93
2023-04-16T13:12:29.017Z,17.74
2023-04-16T13:14:56.099Z,18.01
2023-04-16T13:17:22.794Z,18.08
2023-04-16T13:19:49.470Z,17.96
2023-04-16T13:22:16.144Z,18.24
2023-04-16T13:24:42.792Z,17.98
2023-04-16T13:27:09.540Z,18.13
2023-04-16T13:29:36.820Z,18.19
2023-04-16T13:32:04.125Z,18.07
2023-04-16T13:34:32.628Z,18.16
2023-04-16T13:36:59.373Z,17.84
2023-04-16T13:39:26.209Z,17.63
2023-04-16T13:41:52.853Z,17.83
2023-04-16T13:44:19.564Z,17.87
2023-04-16T13:46:47.917Z,17.76
2023-04-16T13:49:15.134Z,18.20
2023-04-16T13:51:45.001Z,17.79
2023-04-16T13:54:11.756Z,17.50
2023-04-16T13:56:38.700Z,17.05
2023-04-16T13:59:05.409Z,16.98
2023-04-16T14:01:32.110Z,17.01
2023-04-16T14:04:00.377Z,16.56
2023-04-16T14:06:27.181Z,16.90
2023-04-16T14:08:56.018Z,16.37
2023-04-16T14:11:23.630Z,16.64
2023-04-16T14:13:50.431Z,16.18
2023-04-16T14:16:17.055Z,15.80
2023-04-16T14:18:43.680Z,16.07
2023-04-16T14:21:10.349Z,15.95
2023-04-16T14:23:37.066Z,15.74
2023-04-16T14:26:03.898Z,15.68
2023-04-16T14:28:30.591Z,15.58
2023-04-16T14:30:57.255Z,15.90
2023-04-16T14:33:24.778Z,15.96
2023-04-16T14:35:52.024Z,16.02
2023-04-16T14:38:21.468Z,15.77
2023-04-16T14:40:48.922Z,15.52
2023-04-16T14:43:15.880Z,15.14
2023-04-16T14:45:42.570Z,14.71
2023-04-16T14:48:09.287Z,14.65
2023-04-16T14:50:37.960Z,14.66
2023-04-16T14:53:07.822Z,14.75
2023-04-16T14:55:34.667Z,14.57
2023-04-16T14:58:01.359Z,14.23
2023-04-16T15:00:28.216Z,14.27
2023-04-16T15:02:55.643Z,14.38
2023-04-16T15:05:22.611Z,14.39
2023-04-16T15:07:49.309Z,14.25
2023-04-16T15:10:16.028Z,14.16
2023-04-16T15:12:42.714Z,14.18
2023-04-16T15:15:09.872Z,14.17
2023-04-16T15:17:36.704Z,14.25
2023-04-16T15:20:08.204Z,14.00
2023-04-16T15:22:35.137Z,14.11
2023-04-16T15:25:01.870Z,13.99
2023-04-16T15:27:28.660Z,13.77
2023-04-16T15:29:55.455Z,13.74
2023-04-16T15:32:22.239Z,13.87
2023-04-16T15:34:49.011Z,13.95
2023-04-16T15:37:16.187Z,14.07
2023-04-16T15:39:43.248Z,13.93
2023-04-16T15:42:13.237Z,13.72
2023-04-16T15:44:40.622Z,13.74
2023-04-16T15:47:08.636Z,13.84
2023-04-16T15:49:36.045Z,13.86
2023-04-16T15:52:02.822Z,13.83
2023-04-16T15:54:31.025Z,13.72
2023-04-16T15:56:59.145Z,13.80
2023-04-16T15:59:26.821Z,13.66
2023-04-16T16:02:01.698Z,13.59
2023-04-16T16:04:35.148Z,13.49
2023-04-16T16:07:07.524Z,13.44
2023-04-16T16:09:40.253Z,13.50
2023-04-16T16:12:12.769Z,13.39
2023-04-16T16:14:44.283Z,13.34
2023-04-16T16:17:11.108Z,13.21
2023-04-16T16:19:37.727Z,13.09
2023-04-16T16:22:04.584Z,13.04
2023-04-16T16:24:34.035Z,12.83
2023-04-16T16:27:01.664Z,12.88
2023-04-16T16:29:28.344Z,12.81
2023-04-16T16:32:00.119Z,12.78
2023-04-16T16:34:34.806Z,12.80
2023-04-16T16:37:01.434Z,12.73
2023-04-16T16:39:28.078Z,12.70
2023-04-16T16:44:50.963Z,12.64
2023-04-16T16:47:17.711Z,12.67
2023-04-16T16:49:44.806Z,12.68
2023-04-16T16:52:11.570Z,12.60
2023-04-16T16:54:38.140Z,12.64
2023-04-16T16:57:04.723Z,12.64
2023-04-16T16:59:31.695Z,12.59
2023-04-16T17:01:58.523Z,12.50
2023-04-16T17:04:25.483Z,12.48
2023-04-16T17:06:52.402Z,12.44
2023-04-16T17:09:19.122Z,12.47
2023-04-16T17:11:45.788Z,12.35
2023-04-16T17:14:12.474Z,12.33
2023-04-16T17:16:41.182Z,12.30
2023-04-16T17:19:07.969Z,12.30
2023-04-16T17:21:34.651Z,12.24
2023-04-16T17:24:04.222Z,12.19
2023-04-16T17:26:31.948Z,12.18
2023-04-16T17:28:59.410Z,12.17
2023-04-16T17:31:27.358Z,12.18
2023-04-16T17:33:54.084Z,12.17
2023-04-16T17:36:23.858Z,12.17
2023-04-16T17:38:50.777Z,12.06
2023-04-16T17:41:21.441Z,11.99
2023-04-16T17:43:51.216Z,12.00
2023-04-16T17:46:18.261Z,12.06
2023-04-16T17:48:45.040Z,12.05
2023-04-16T17:51:20.082Z,12.03
2023-04-16T17:53:47.445Z,11.99
2023-04-16T17:56:16.673Z,11.94
2023-04-16T17:58:43.446Z,11.83
2023-04-16T18:01:11.202Z,11.75
2023-04-16T18:03:39.463Z,11.70
2023-04-16T18:06:06.217Z,11.69
2023-04-16T18:08:33.855Z,11.66
2023-04-16T18:11:00.479Z,11.62
2023-04-16T18:13:27.264Z,11.44
2023-04-16T18:15:55.309Z,11.43
2023-04-16T18:18:22.016Z,11.43
2023-04-16T18:20:48.771Z,11.39
2023-04-16T18:23:15.421Z,11.45
2023-04-16T18:25:42.221Z,11.46
2023-04-16T18:28:09.551Z,11.36
2023-04-16T18:30:40.044Z,11.41
2023-04-16T18:33:38.488Z,11.39
2023-04-16T18:35:53.729Z,11.38
2023-04-16T18:38:20.365Z,11.36
2023-04-16T18:40:47.561Z,11.40
2023-04-16T18:43:14.208Z,11.39
2023-04-16T18:45:41.774Z,11.40
2023-04-16T18:48:08.406Z,11.37
2023-04-16T18:50:35.428Z,11.40
2023-04-16T18:53:02.368Z,11.28
2023-04-16T18:55:30.301Z,11.04
2023-04-16T18:57:57.081Z,10.96
2023-04-16T19:00:23.694Z,10.98
2023-04-16T19:02:50.448Z,10.97
2023-04-16T19:05:17.305Z,11.00
2023-04-16T19:07:43.949Z,10.98
2023-04-16T19:10:10.715Z,10.87
2023-04-16T19:12:37.385Z,10.93
2023-04-16T19:15:05.141Z,10.91
2023-04-16T19:17:31.907Z,10.87
2023-04-16T19:19:58.601Z,10.88
2023-04-16T19:22:25.239Z,10.88
2023-04-16T19:24:51.856Z,10.83
2023-04-16T19:27:18.434Z,10.81
2023-04-16T19:29:46.717Z,10.78
2023-04-16T19:32:14.274Z,10.74
2023-04-16T19:34:41.026Z,10.71
2023-04-16T19:37:07.865Z,10.74
2023-04-16T19:39:34.527Z,10.68
2023-04-16T19:42:01.867Z,10.73
2023-04-16T19:44:28.526Z,10.73
2023-04-16T19:46:55.496Z,10.78
2023-04-16T19:49:22.168Z,10.68
2023-04-16T19:51:48.788Z,10.61
2023-04-16T19:54:15.690Z,10.58
2023-04-16T19:56:42.301Z,10.59
2023-04-16T19:59:09.459Z,10.60
2023-04-16T20:01:36.402Z,10.63
2023-04-16T20:04:03.094Z,10.62
2023-04-16T20:06:29.759Z,10.55
2023-04-16T20:08:57.431Z,10.55
2023-04-16T20:11:24.103Z,10.54
2023-04-16T20:13:50.783Z,10.44
2023-04-16T20:16:17.588Z,10.44
2023-04-16T20:18:46.193Z,10.40
2023-04-16T20:21:12.857Z,10.48
2023-04-16T20:23:39.499Z,10.48
2023-04-16T20:26:06.341Z,10.46
2023-04-16T20:28:32.914Z,10.52
2023-04-16T20:30:59.503Z,10.48
2023-04-16T20:33:26.155Z,10.41
2023-04-16T20:35:52.802Z,10.42
2023-04-16T20:38:23.765Z,10.52
2023-04-16T20:41:06.254Z,10.53
2023-04-16T20:43:38.643Z,10.53
2023-04-16T20:46:06.190Z,10.47
2023-04-16T20:48:33.269Z,10.42
2023-04-16T20:51:03.965Z,10.39
2023-04-16T20:53:32.516Z,10.41
2023-04-16T20:56:02.523Z,10.38
2023-04-16T20:58:29.828Z,10.40
2023-04-16T21:00:57.881Z,10.36
2023-04-16T21:03:25.295Z,10.33
2023-04-16T21:05:53.872Z,10.29
2023-04-16T21:08:21.386Z,10.25
2023-04-16T21:10:48.651Z,10.20
2023-04-16T21:13:15.398Z,10.13
2023-04-16T21:15:43.742Z,10.14
2023-04-16T21:18:11.302Z,10.12
2023-04-16T21:20:39.209Z,10.10
2023-04-16T21:23:06.483Z,10.10
2023-04-16T21:25:33.644Z,10.02
2023-04-16T21:28:00.656Z,9.92
2023-04-16T21:30:27.346Z,9.85
2023-04-16T21:32:54.118Z,9.83
2023-04-16T21:35:20.975Z,9.82
2023-04-16T21:37:47.607Z,9.78
2023-04-16T21:40:14.428Z,9.80
2023-04-16T21:42:42.458Z,9.78
2023-04-16T21:45:10.515Z,9.69
2023-04-16T21:47:37.866Z,9.64
2023-04-16T21:50:04.927Z,9.61
2023-04-16T21:52:32.943Z,9.59
2023-04-16T21:55:00.477Z,9.63
2023-04-16T21:57:27.237Z,9.58
2023-04-16T21:59:53.871Z,9.52
2023-04-16T22:02:20.555Z,9.48
2023-04-16T22:04:47.440Z,9.41
2023-04-16T22:07:16.854Z,9.41
2023-04-16T22:09:43.817Z,9.32
2023-04-16T22:12:10.540Z,9.26
2023-04-16T22:14:42.149Z,9.25
2023-04-16T22:17:13.013Z,9.25
2023-04-16T22:19:39.722Z,9.32
2023-04-16T22:22:06.342Z,9.30
2023-04-16T22:24:33.056Z,9.30
2023-04-16T22:26:59.692Z,9.23
2023-04-16T22:29:26.419Z,9.19
2023-04-16T22:31:53.218Z,9.16
2023-04-16T22:34:19.923Z,9.19
2023-04-16T22:36:47.578Z,9.20
2023-04-16T22:39:14.621Z,9.26
2023-04-16T22:41:41.628Z,9.24
2023-04-16T22:44:08.259Z,9.23
2023-04-16T22:46:35.174Z,9.25
2023-04-16T22:49:02.714Z,9.23
2023-04-16T22:51:30.189Z,9.25
2023-04-16T22:53:58.998Z,9.27
2023-04-16T22:56:28.954Z,9.30
2023-04-16T22:58:55.669Z,9.26
2023-04-16T23:01:22.733Z,9.25
2023-04-16T23:03:49.483Z,9.18
2023-04-16T23:06:16.358Z,9.18
2023-04-16T23:08:42.978Z,9.19
2023-04-16T23:11:09.710Z,9.14
2023-04-16T23:13:36.369Z,9.04
2023-04-16T23:16:03.025Z,8.99
2023-04-16T23:18:29.716Z,9.01
2023-04-16T23:20:56.467Z,8.99
2023-04-16T23:23:23.096Z,9.00
2023-04-16T23:25:53.227Z,9.02
2023-04-16T23:28:20.090Z,9.03
2023-04-16T23:30:46.666Z,9.02
2023-04-16T23:33:13.380Z,9.01
2023-04-16T23:35:39.981Z,9.03
2023-04-16T23:38:06.589Z,9.08
2023-04-16T23:40:33.186Z,9.09
2023-04-16T23:42:59.805Z,9.15
2023-04-16T23:45:26.421Z,9.19
2023-04-16T23:47:53.165Z,9.23
2023-04-16T23:50:19.887Z,9.20
2023-04-16T23:52:46.514Z,9.27
2023-04-16T23:55:13.168Z,9.33
2023-04-16T23:57:39.815Z,9.32
